Search for airport 
image banner adimage banner adimage banner ad
image banner ad

L00 - Rosamond Skypark

Located in Rosamond, United States

ICAO - L00, IATA -

Data provided by Airmate  

General information

Coordinates: N34°52'14" W118°12'20"
Elevation is 2415 feet MSL.
Magnetic variation is 14° East
View others Airports in California

Operational data

Special qualification required
Current time UTC:
Current local time:
Weather at : KWJF - General Wm J Fox Airfield ( 14 km )
METAR: KWJF 231456Z 27007KT 10SM FEW100 21/08 A2998 RMK AO2 SLP136 T02060083 53004
TAF: KWJF 231144Z 2312/2412 25009KT P6SM SKC FM232200 23015G20KT P6SM SKC FM240400 23010KT P6SM SKC
View NOTAMs / SUP AIP / TFR affecting this airport [VIEW]
Communications frequencies: [VIEW]

Runways:

RWY identifierQFULength (ft)Width (ft)SurfaceLDA (ft)
08360050ASPH
26360050ASPH

Airport contact information

Address: Rosamond United States

Satellite view of L00